Time;durP1;ratioP1;P1;durP2;ratioP2;P2;SDS_P1;SDS_P2;PMS_P1;PMS_P2;Temp;Humidity;BMP_temperature;BMP_pressure;BME280_temperature;BME280_humidity;BME280_pressure;Samples;Min_cycle;Max_cycle;Signal;HPM_P1;HPM_P2
2021/09/11 00:00:16;;;;;;;8.93;7.87;;;20.90;99.90;;;;;;4994914;28;20419;-67
2021/09/11 00:02:47;;;;;;;7.57;7.03;;;20.90;99.90;;;;;;4994388;28;20176;-67
2021/09/11 00:05:15;;;;;;;9.27;8.57;;;20.90;99.90;;;;;;4994603;28;20488;-67
2021/09/11 00:07:42;;;;;;;8.13;7.53;;;20.90;99.90;;;;;;4993520;28;20451;-67
2021/09/11 00:10:10;;;;;;;7.70;7.20;;;20.90;99.90;;;;;;4994873;28;20419;-67
2021/09/11 00:12:37;;;;;;;7.90;7.30;;;20.90;99.90;;;;;;4993849;28;20461;-68
2021/09/11 00:15:08;;;;;;;8.73;8.13;;;21.00;99.90;;;;;;4994650;28;20817;-67
2021/09/11 00:17:34;;;;;;;8.33;7.83;;;21.00;99.90;;;;;;4966182;28;20448;-73
2021/09/11 00:20:00;;;;;;;8.57;7.97;;;21.00;99.90;;;;;;4976653;28;20450;-67
2021/09/11 00:22:26;;;;;;;8.00;7.50;;;21.00;99.90;;;;;;4995047;28;20476;-67
2021/09/11 00:24:52;;;;;;;7.80;7.30;;;21.00;99.90;;;;;;4994064;28;20490;-67
2021/09/11 00:27:17;;;;;;;8.27;7.77;;;21.00;99.90;;;;;;4994452;28;20194;-67
2021/09/11 00:29:43;;;;;;;8.23;7.70;;;21.00;99.90;;;;;;4993538;28;20207;-67
2021/09/11 00:32:09;;;;;;;8.27;7.77;;;21.00;99.90;;;;;;4994708;28;20180;-67
2021/09/11 00:34:35;;;;;;;7.90;7.50;;;21.00;99.90;;;;;;4975942;28;20184;-73
2021/09/11 00:37:01;;;;;;;8.30;7.80;;;21.00;99.90;;;;;;4994062;28;20419;-66
2021/09/11 00:39:27;;;;;;;9.30;8.60;;;21.10;99.90;;;;;;4994662;28;20176;-67
2021/09/11 00:41:53;;;;;;;8.47;7.77;;;21.10;99.90;;;;;;4974633;28;20435;-67
2021/09/11 00:44:20;;;;;;;8.43;7.93;;;21.10;99.90;;;;;;4985737;28;20270;-67
2021/09/11 00:46:46;;;;;;;8.63;8.13;;;21.10;99.90;;;;;;4973710;28;20437;-67
2021/09/11 00:49:12;;;;;;;8.77;8.00;;;21.10;99.90;;;;;;4993273;28;20392;-67
2021/09/11 00:51:38;;;;;;;8.40;7.70;;;21.00;99.90;;;;;;4989634;28;20431;-68
2021/09/11 00:54:05;;;;;;;8.90;8.20;;;21.00;99.90;;;;;;4990356;28;20466;-67
2021/09/11 00:56:32;;;;;;;8.63;8.00;;;21.00;99.90;;;;;;4989742;28;20921;-67
2021/09/11 00:59:00;;;;;;;8.83;8.10;;;21.00;99.90;;;;;;4992290;28;20418;-67
2021/09/11 01:01:26;;;;;;;8.40;7.90;;;21.00;99.90;;;;;;4987340;28;20775;-67
2021/09/11 01:03:52;;;;;;;8.67;8.00;;;21.00;99.90;;;;;;4991867;28;20457;-67
2021/09/11 01:06:18;;;;;;;8.13;7.43;;;21.00;99.90;;;;;;4989278;28;20460;-67
2021/09/11 01:08:45;;;;;;;7.90;7.50;;;21.00;99.90;;;;;;4991773;28;21496;-67
2021/09/11 01:11:11;;;;;;;8.63;7.87;;;21.00;99.90;;;;;;4989760;28;20530;-67
2021/09/11 01:13:37;;;;;;;8.27;7.77;;;21.00;99.90;;;;;;4990391;28;21089;-73
2021/09/11 01:16:04;;;;;;;8.53;8.03;;;21.00;99.90;;;;;;4993227;28;20423;-67
2021/09/11 01:18:30;;;;;;;8.83;8.13;;;21.00;99.90;;;;;;4992966;28;20450;-67
2021/09/11 01:20:57;;;;;;;8.50;8.00;;;21.00;99.90;;;;;;4993247;28;20461;-67
2021/09/11 01:23:24;;;;;;;8.90;8.30;;;21.00;99.90;;;;;;4993612;28;20454;-67
2021/09/11 01:25:50;;;;;;;8.50;7.90;;;21.00;99.90;;;;;;4993193;28;20406;-67
2021/09/11 01:28:16;;;;;;;8.57;8.07;;;21.10;99.90;;;;;;4993934;28;20410;-67
2021/09/11 01:30:42;;;;;;;8.73;8.13;;;21.00;99.90;;;;;;4992819;28;20427;-67
2021/09/11 01:33:07;;;;;;;7.90;7.40;;;21.00;99.90;;;;;;4993556;28;20448;-67
2021/09/11 01:35:33;;;;;;;8.00;7.40;;;21.00;99.90;;;;;;4993344;28;20192;-67
2021/09/11 01:37:59;;;;;;;8.87;8.23;;;21.00;99.90;;;;;;4992580;28;20266;-67
2021/09/11 01:40:25;;;;;;;8.40;7.77;;;21.00;99.90;;;;;;4993382;28;20171;-67
2021/09/11 01:42:51;;;;;;;8.53;7.83;;;21.00;99.90;;;;;;4992628;28;20218;-67
2021/09/11 01:45:19;;;;;;;8.27;7.77;;;21.00;99.90;;;;;;4992982;28;20993;-67
2021/09/11 01:47:46;;;;;;;8.80;8.07;;;21.00;99.90;;;;;;4992216;28;20180;-67
2021/09/11 01:50:14;;;;;;;8.77;8.20;;;21.00;99.90;;;;;;4993532;28;20462;-67
2021/09/11 01:52:40;;;;;;;7.70;7.27;;;21.00;99.90;;;;;;4974569;28;20450;-71
2021/09/11 01:55:08;;;;;;;8.30;7.80;;;21.00;99.90;;;;;;4992492;28;20511;-67
2021/09/11 01:57:38;;;;;;;9.00;8.40;;;21.00;99.90;;;;;;4992253;28;20431;-67
2021/09/11 02:00:08;;;;;;;8.83;8.23;;;21.00;99.90;;;;;;4992856;28;20415;-68
2021/09/11 02:02:34;;;;;;;9.03;8.50;;;21.00;99.90;;;;;;4993032;28;20430;-67
2021/09/11 02:05:00;;;;;;;9.47;8.87;;;21.00;99.90;;;;;;4991151;28;20475;-67
2021/09/11 02:07:26;;;;;;;11.57;10.53;;;21.00;99.90;;;;;;4958474;28;20431;-67
2021/09/11 02:09:52;;;;;;;11.00;9.97;;;21.00;99.90;;;;;;4992169;28;20172;-67
2021/09/11 02:12:17;;;;;;;10.77;9.97;;;21.00;99.90;;;;;;4975213;28;20262;-67
2021/09/11 02:14:43;;;;;;;11.00;10.20;;;21.00;99.90;;;;;;4991034;28;20183;-67
2021/09/11 02:17:09;;;;;;;11.23;10.53;;;21.00;99.90;;;;;;4992580;28;20202;-67
2021/09/11 02:19:35;;;;;;;12.03;11.00;;;21.00;99.90;;;;;;4992743;28;20234;-67
2021/09/11 02:22:05;;;;;;;11.80;10.83;;;21.00;99.90;;;;;;4991990;28;20194;-67
2021/09/11 02:24:31;;;;;;;12.30;11.33;;;21.00;99.90;;;;;;4992931;28;20451;-67
2021/09/11 02:26:57;;;;;;;13.03;11.90;;;21.10;99.90;;;;;;4991958;28;21456;-67
2021/09/11 02:29:24;;;;;;;13.80;12.70;;;21.00;99.90;;;;;;4992104;28;20179;-67
2021/09/11 02:31:50;;;;;;;13.97;12.70;;;21.00;99.90;;;;;;4991740;28;20415;-67
2021/09/11 02:34:15;;;;;;;14.00;12.90;;;20.90;99.90;;;;;;4975696;28;20406;-67
2021/09/11 02:36:42;;;;;;;13.77;12.67;;;20.90;99.90;;;;;;4992207;28;20438;-74
2021/09/11 02:39:08;;;;;;;15.50;14.20;;;20.90;99.90;;;;;;4975372;28;20237;-67
2021/09/11 02:41:34;;;;;;;15.67;14.37;;;20.90;99.90;;;;;;4992622;28;20430;-67
2021/09/11 02:44:03;;;;;;;16.60;15.20;;;20.90;99.90;;;;;;4991768;28;21038;-67
2021/09/11 02:46:30;;;;;;;14.93;13.63;;;20.90;99.90;;;;;;4992834;28;20481;-67
2021/09/11 02:49:00;;;;;;;18.13;16.63;;;20.90;99.90;;;;;;4991995;28;20415;-67
2021/09/11 02:51:27;;;;;;;17.80;16.20;;;20.90;99.90;;;;;;4992581;28;20922;-67
2021/09/11 02:53:52;;;;;;;19.20;17.60;;;20.90;99.90;;;;;;4991408;28;20422;-67
2021/09/11 02:56:18;;;;;;;19.07;17.30;;;20.90;99.90;;;;;;4992639;28;20421;-67
2021/09/11 02:58:44;;;;;;;18.83;17.27;;;20.90;99.90;;;;;;4991620;28;20259;-69
2021/09/11 03:01:09;;;;;;;19.17;17.37;;;20.90;99.90;;;;;;4992411;28;20218;-67
2021/09/11 03:03:37;;;;;;;19.70;18.00;;;20.90;99.90;;;;;;4992075;28;20199;-68
2021/09/11 03:06:02;;;;;;;19.80;18.10;;;21.00;99.90;;;;;;4991884;28;20713;-67
2021/09/11 03:08:28;;;;;;;20.87;19.00;;;20.90;99.90;;;;;;4992495;28;20455;-67
2021/09/11 03:10:54;;;;;;;20.87;18.80;;;21.00;99.90;;;;;;4991570;28;20182;-68
2021/09/11 03:13:20;;;;;;;21.20;19.20;;;21.00;99.90;;;;;;4992573;28;20949;-68
2021/09/11 03:15:46;;;;;;;21.73;19.67;;;21.00;99.90;;;;;;4991248;28;20434;-68
2021/09/11 03:18:12;;;;;;;21.40;19.27;;;21.00;99.90;;;;;;4991985;28;20918;-67
2021/09/11 03:20:38;;;;;;;19.70;17.83;;;21.00;99.90;;;;;;4975318;28;20628;-67
2021/09/11 03:23:05;;;;;;;21.57;19.57;;;21.00;99.90;;;;;;4991407;28;20422;-67
2021/09/11 03:25:31;;;;;;;22.47;20.53;;;21.00;99.90;;;;;;4974419;28;20191;-67
2021/09/11 03:27:57;;;;;;;23.07;20.70;;;21.00;99.90;;;;;;4991109;28;20426;-67
2021/09/11 03:30:23;;;;;;;24.43;22.23;;;21.00;99.90;;;;;;4992204;28;20498;-67
2021/09/11 03:32:52;;;;;;;24.73;22.47;;;21.00;99.90;;;;;;4991326;28;20426;-67
2021/09/11 03:35:17;;;;;;;24.00;21.60;;;21.00;99.90;;;;;;4991971;28;20431;-67
2021/09/11 03:37:43;;;;;;;24.03;21.70;;;21.00;99.90;;;;;;4991587;28;20410;-74
2021/09/11 03:40:10;;;;;;;24.10;22.10;;;21.00;99.90;;;;;;4992684;28;20214;-67
2021/09/11 03:42:36;;;;;;;24.90;22.80;;;20.90;99.90;;;;;;4995751;28;20180;-67
2021/09/11 03:45:02;;;;;;;26.33;23.87;;;21.00;99.90;;;;;;4994456;28;21458;-68
2021/09/11 03:47:27;;;;;;;24.90;22.80;;;21.00;99.90;;;;;;4995764;28;20449;-67
2021/09/11 03:49:53;;;;;;;25.37;23.07;;;21.00;99.90;;;;;;4994492;28;20429;-67
2021/09/11 03:52:19;;;;;;;27.03;24.10;;;21.00;99.90;;;;;;4995291;28;20191;-67
2021/09/11 03:54:44;;;;;;;26.77;24.37;;;21.00;99.90;;;;;;4977713;28;20198;-74
2021/09/11 03:57:10;;;;;;;25.60;23.10;;;21.00;99.90;;;;;;4994771;28;20203;-68
2021/09/11 03:59:36;;;;;;;26.40;23.90;;;21.00;99.90;;;;;;4994788;28;20254;-67
2021/09/11 04:02:01;;;;;;;25.87;23.47;;;21.00;99.90;;;;;;4976936;28;20179;-67
2021/09/11 04:04:27;;;;;;;25.53;23.23;;;21.00;99.90;;;;;;4994858;28;20262;-67
2021/09/11 04:06:53;;;;;;;25.17;22.63;;;21.00;99.90;;;;;;4994611;28;20192;-69
2021/09/11 04:09:19;;;;;;;25.00;22.70;;;20.90;99.90;;;;;;4978011;28;20573;-67
2021/09/11 04:11:44;;;;;;;25.93;23.37;;;21.00;99.90;;;;;;4995210;28;20194;-74
2021/09/11 04:14:11;;;;;;;27.80;25.10;;;21.00;99.90;;;;;;4994095;28;20188;-68
2021/09/11 04:16:37;;;;;;;27.67;24.97;;;21.00;99.90;;;;;;4975577;28;20200;-67
2021/09/11 04:19:03;;;;;;;27.57;24.77;;;21.00;99.90;;;;;;4988641;28;20411;-67
2021/09/11 04:21:29;;;;;;;25.90;23.40;;;21.00;99.90;;;;;;4994878;28;20790;-67
2021/09/11 04:23:55;;;;;;;26.60;23.73;;;21.00;99.90;;;;;;4976719;28;20549;-68
2021/09/11 04:26:20;;;;;;;26.70;23.90;;;21.00;99.90;;;;;;4994606;28;20628;-67
2021/09/11 04:28:46;;;;;;;25.40;22.80;;;21.00;99.90;;;;;;4994190;28;20210;-73
2021/09/11 04:31:12;;;;;;;25.20;22.60;;;21.00;99.90;;;;;;4994285;28;20539;-67
2021/09/11 04:33:38;;;;;;;31.87;28.57;;;21.00;99.90;;;;;;4977021;28;20191;-67
2021/09/11 04:36:03;;;;;;;28.17;25.27;;;21.00;99.90;;;;;;4993984;28;20187;-67
2021/09/11 04:38:29;;;;;;;27.83;24.93;;;21.00;99.90;;;;;;4993081;28;20172;-68
2021/09/11 04:40:55;;;;;;;28.27;25.33;;;21.00;99.90;;;;;;4992911;28;20440;-68
2021/09/11 04:43:21;;;;;;;26.27;23.60;;;21.00;99.90;;;;;;4994619;28;20545;-68
2021/09/11 04:45:46;;;;;;;27.83;25.10;;;21.00;99.90;;;;;;4994218;28;20187;-74
2021/09/11 04:48:13;;;;;;;27.67;24.87;;;21.10;99.90;;;;;;4993925;28;20275;-68
2021/09/11 04:50:38;;;;;;;27.53;24.63;;;21.10;99.90;;;;;;4993421;28;20235;-67
2021/09/11 04:53:04;;;;;;;29.60;26.60;;;21.10;99.90;;;;;;4992098;28;20419;-67
2021/09/11 04:55:30;;;;;;;26.70;24.00;;;21.20;99.90;;;;;;4975972;28;20263;-67
2021/09/11 04:57:55;;;;;;;27.60;24.33;;;21.20;99.90;;;;;;4993434;28;20215;-67
2021/09/11 05:00:21;;;;;;;27.10;24.17;;;21.30;99.90;;;;;;4990944;28;20205;-67
2021/09/11 05:02:47;;;;;;;27.40;24.50;;;21.30;99.90;;;;;;4992311;28;20192;-74
2021/09/11 05:05:13;;;;;;;28.00;25.10;;;21.30;99.90;;;;;;4993703;28;20235;-67
2021/09/11 05:07:38;;;;;;;27.07;24.47;;;21.30;99.90;;;;;;4993262;28;20266;-68
2021/09/11 05:10:05;;;;;;;26.37;23.60;;;21.30;99.90;;;;;;4993139;28;20183;-68
2021/09/11 05:12:30;;;;;;;29.47;26.37;;;21.30;99.90;;;;;;4977128;28;20175;-68
2021/09/11 05:14:56;;;;;;;26.80;23.17;;;21.30;99.90;;;;;;4992331;28;20426;-68
2021/09/11 05:17:22;;;;;;;25.00;22.50;;;21.40;99.90;;;;;;4993382;28;20207;-70
2021/09/11 05:19:47;;;;;;;28.43;22.90;;;21.40;99.90;;;;;;4974976;28;20262;-73
2021/09/11 05:22:13;;;;;;;25.43;22.93;;;21.40;99.90;;;;;;4970823;28;20180;-68
2021/09/11 05:24:39;;;;;;;25.20;22.27;;;21.40;99.90;;;;;;4974294;28;20291;-68
2021/09/11 05:27:05;;;;;;;25.60;23.10;;;21.50;99.90;;;;;;4992273;28;20525;-68
2021/09/11 05:29:31;;;;;;;23.63;21.20;;;21.50;99.90;;;;;;4975807;28;20214;-67
2021/09/11 05:31:57;;;;;;;24.23;21.73;;;21.50;99.90;;;;;;4990723;28;20246;-68
2021/09/11 05:34:23;;;;;;;23.10;20.90;;;21.50;99.90;;;;;;4990126;28;20430;-69
2021/09/11 05:36:50;;;;;;;23.40;20.10;;;21.50;99.90;;;;;;4986435;28;20184;-73
2021/09/11 05:39:16;;;;;;;21.60;19.50;;;21.50;99.90;;;;;;4989337;28;20255;-67
2021/09/11 05:41:42;;;;;;;17.50;16.00;;;21.40;99.90;;;;;;4991245;28;20787;-68
2021/09/11 05:44:08;;;;;;;18.10;16.40;;;21.30;99.90;;;;;;4990531;28;20461;-68
2021/09/11 05:46:34;;;;;;;17.70;15.90;;;21.30;99.90;;;;;;4983647;28;20431;-68
2021/09/11 05:49:00;;;;;;;14.00;12.83;;;21.40;99.90;;;;;;4973236;28;20654;-68
2021/09/11 05:51:25;;;;;;;14.63;13.33;;;21.30;99.90;;;;;;4992156;28;20172;-68
2021/09/11 05:53:51;;;;;;;13.40;12.20;;;21.30;99.90;;;;;;4973381;28;20623;-74
2021/09/11 05:56:17;;;;;;;12.63;11.50;;;21.40;99.90;;;;;;4990281;28;20183;-70
2021/09/11 05:58:43;;;;;;;12.57;11.57;;;21.40;99.90;;;;;;4990827;28;20259;-68
2021/09/11 06:01:09;;;;;;;12.10;10.90;;;21.40;99.90;;;;;;4979980;28;20371;-67
2021/09/11 06:03:35;;;;;;;11.73;10.73;;;21.50;99.90;;;;;;4990402;28;20461;-68
2021/09/11 06:06:01;;;;;;;12.80;11.60;;;21.50;99.90;;;;;;4991948;28;20517;-68
2021/09/11 06:08:27;;;;;;;11.33;10.53;;;21.50;99.90;;;;;;4989415;28;20250;-68
2021/09/11 06:10:53;;;;;;;12.37;11.33;;;21.60;99.90;;;;;;4988903;28;20447;-74
2021/09/11 06:13:19;;;;;;;10.90;10.20;;;21.50;99.90;;;;;;4987636;28;20426;-68
2021/09/11 06:15:44;;;;;;;11.17;10.37;;;21.50;99.90;;;;;;4990850;28;20506;-71
2021/09/11 06:18:10;;;;;;;10.90;10.10;;;21.50;99.90;;;;;;4991050;28;20334;-68
2021/09/11 06:20:36;;;;;;;10.50;9.60;;;21.40;99.90;;;;;;4991807;28;20178;-68
2021/09/11 06:23:02;;;;;;;10.57;9.77;;;21.40;99.90;;;;;;4977586;28;20207;-68
2021/09/11 06:25:27;;;;;;;10.57;9.87;;;21.40;99.90;;;;;;4992981;28;20531;-68
2021/09/11 06:27:56;;;;;;;9.90;9.20;;;21.40;99.90;;;;;;4974648;28;20175;-74
2021/09/11 06:30:26;;;;;;;10.10;9.33;;;21.40;99.90;;;;;;4992060;28;20187;-68
2021/09/11 06:32:52;;;;;;;10.50;9.70;;;21.40;99.90;;;;;;4991320;28;20902;-71
2021/09/11 06:35:18;;;;;;;10.53;9.73;;;21.40;99.90;;;;;;4970701;28;20437;-66
2021/09/11 06:37:44;;;;;;;9.67;9.00;;;21.40;99.90;;;;;;4996005;28;20435;-66
2021/09/11 06:40:10;;;;;;;9.27;8.67;;;21.40;99.90;;;;;;4970229;28;20419;-66
2021/09/11 06:42:35;;;;;;;9.37;8.77;;;21.30;99.90;;;;;;4959580;28;20548;-67
2021/09/11 06:45:01;;;;;;;10.20;9.60;;;21.40;99.90;;;;;;4985741;28;20464;-68
2021/09/11 06:47:27;;;;;;;9.87;9.03;;;21.40;99.90;;;;;;4986842;28;20186;-68
2021/09/11 06:49:53;;;;;;;10.77;9.90;;;21.30;99.90;;;;;;4992244;28;20183;-72
2021/09/11 06:52:20;;;;;;;9.80;9.20;;;21.20;99.90;;;;;;4992032;28;20642;-68
2021/09/11 06:54:47;;;;;;;9.87;9.00;;;21.10;99.90;;;;;;4975205;28;20179;-68
2021/09/11 06:57:13;;;;;;;9.50;8.80;;;21.20;99.90;;;;;;4991963;28;20457;-68
2021/09/11 06:59:39;;;;;;;9.80;9.10;;;21.20;99.90;;;;;;4991991;28;20513;-67
2021/09/11 07:02:04;;;;;;;9.17;8.57;;;21.20;99.90;;;;;;4991679;28;20184;-68
2021/09/11 07:04:30;;;;;;;9.90;9.00;;;21.20;99.90;;;;;;4991759;28;20254;-68
2021/09/11 07:06:56;;;;;;;8.37;7.80;;;21.30;99.90;;;;;;4991729;28;20179;-74
2021/09/11 07:09:21;;;;;;;9.27;8.60;;;21.30;99.90;;;;;;4992327;28;20642;-68
2021/09/11 07:11:47;;;;;;;8.63;7.93;;;21.30;99.90;;;;;;4992149;28;20310;-68
2021/09/11 07:14:15;;;;;;;8.63;8.00;;;21.30;99.90;;;;;;4991608;28;20828;-68
2021/09/11 07:16:44;;;;;;;8.83;8.23;;;21.30;99.90;;;;;;4996168;28;20175;-67
2021/09/11 07:19:10;;;;;;;7.53;7.07;;;21.20;99.90;;;;;;4977771;28;20423;-68
2021/09/11 07:21:38;;;;;;;7.20;6.80;;;21.30;99.90;;;;;;4996085;28;20427;-69
2021/09/11 07:24:05;;;;;;;7.80;7.30;;;21.30;99.90;;;;;;4994389;28;20544;-68
2021/09/11 07:26:30;;;;;;;7.13;6.73;;;21.20;99.90;;;;;;4995950;28;20832;-67
2021/09/11 07:28:56;;;;;;;6.87;6.37;;;21.20;99.90;;;;;;4994830;28;20430;-75
2021/09/11 07:31:22;;;;;;;6.60;6.10;;;21.30;99.90;;;;;;4996058;28;20283;-67
2021/09/11 07:33:48;;;;;;;6.93;6.53;;;21.30;99.90;;;;;;4995776;28;20490;-67
2021/09/11 07:36:14;;;;;;;6.03;5.73;;;21.30;99.90;;;;;;4994741;28;20189;-68
2021/09/11 07:38:40;;;;;;;5.90;5.50;;;21.30;99.90;;;;;;4996183;28;20218;-68
2021/09/11 07:41:06;;;;;;;6.47;6.07;;;21.30;99.90;;;;;;4994182;28;20187;-68
2021/09/11 07:43:32;;;;;;;6.33;5.77;;;21.30;99.90;;;;;;4995138;28;20949;-67
2021/09/11 07:45:57;;;;;;;11.00;6.70;;;21.30;99.90;;;;;;4995239;28;20418;-74
2021/09/11 07:48:24;;;;;;;6.40;5.90;;;21.40;99.90;;;;;;4995595;28;20230;-68
2021/09/11 07:50:50;;;;;;;6.77;6.30;;;21.40;99.90;;;;;;4995526;28;20520;-68
2021/09/11 07:53:16;;;;;;;7.00;6.50;;;21.40;99.90;;;;;;4977503;28;20492;-67
2021/09/11 07:55:42;;;;;;;7.47;7.07;;;21.40;99.90;;;;;;4995586;28;20882;-66
2021/09/11 07:58:08;;;;;;;7.07;6.57;;;21.40;99.90;;;;;;4994660;28;20947;-68
2021/09/11 08:00:34;;;;;;;6.90;6.47;;;21.30;99.90;;;;;;4994814;28;20886;-68
2021/09/11 08:03:00;;;;;;;7.17;6.47;;;21.40;99.90;;;;;;4994245;28;20429;-69
2021/09/11 08:05:26;;;;;;;6.27;5.87;;;21.40;99.90;;;;;;4994930;28;20962;-68
2021/09/11 08:07:51;;;;;;;6.53;6.10;;;21.40;99.90;;;;;;4995333;28;20262;-68
2021/09/11 08:10:18;;;;;;;6.20;5.80;;;21.40;99.90;;;;;;4993761;28;20187;-68
2021/09/11 08:12:44;;;;;;;6.77;6.30;;;21.40;99.90;;;;;;4995005;28;20215;-68
2021/09/11 08:15:11;;;;;;;6.10;5.70;;;21.50;99.90;;;;;;4994270;28;20477;-69
2021/09/11 08:17:36;;;;;;;5.17;4.83;;;21.40;99.90;;;;;;4994075;28;20459;-68
2021/09/11 08:20:06;;;;;;;5.60;5.20;;;21.50;99.90;;;;;;4994120;28;21005;-68
2021/09/11 08:22:32;;;;;;;6.37;5.97;;;21.50;99.90;;;;;;4994381;28;20176;-68
2021/09/11 08:24:57;;;;;;;5.50;5.20;;;21.50;99.90;;;;;;4994531;28;20455;-73
2021/09/11 08:27:24;;;;;;;5.57;5.07;;;21.50;99.90;;;;;;4993336;28;20206;-68
2021/09/11 08:29:50;;;;;;;5.37;4.97;;;21.50;99.90;;;;;;4995047;28;20180;-68
2021/09/11 08:32:16;;;;;;;6.50;6.07;;;21.50;99.90;;;;;;4993953;28;20505;-68
2021/09/11 08:34:42;;;;;;;6.47;6.07;;;21.60;99.90;;;;;;4994688;28;20435;-70
2021/09/11 08:37:08;;;;;;;5.60;5.30;;;21.60;99.90;;;;;;4992632;28;20422;-68
2021/09/11 08:39:34;;;;;;;5.10;4.80;;;21.70;99.90;;;;;;4994386;28;20180;-67
2021/09/11 08:42:01;;;;;;;5.20;4.80;;;21.70;99.90;;;;;;4994081;28;20486;-74
2021/09/11 08:44:27;;;;;;;5.40;5.10;;;21.70;99.90;;;;;;4993407;28;20262;-68
2021/09/11 08:46:53;;;;;;;5.57;5.10;;;21.70;99.90;;;;;;4994389;28;20934;-68
2021/09/11 08:49:19;;;;;;;5.00;4.70;;;21.70;99.90;;;;;;4993550;28;21045;-68
2021/09/11 08:51:45;;;;;;;4.90;4.70;;;21.80;99.90;;;;;;4976867;28;20481;-68
2021/09/11 08:54:14;;;;;;;4.77;4.47;;;21.90;99.90;;;;;;4982841;28;20817;-68
2021/09/11 08:56:43;;;;;;;4.50;4.27;;;21.90;99.90;;;;;;4994383;28;20187;-68
2021/09/11 08:59:11;;;;;;;5.17;4.87;;;22.00;99.70;;;;;;4993389;28;20430;-68
2021/09/11 09:01:38;;;;;;;4.90;4.60;;;22.10;99.90;;;;;;4993952;28;20450;-67
2021/09/11 09:04:04;;;;;;;5.40;5.10;;;22.10;99.10;;;;;;4991420;28;20446;-72
2021/09/11 09:06:32;;;;;;;5.27;4.87;;;22.20;99.20;;;;;;4993702;28;20549;-68
2021/09/11 09:09:14;;;;;;;6.00;5.30;;;22.20;98.60;;;;;;4993725;28;20422;-68
2021/09/11 09:11:42;;;;;;;5.37;5.17;;;22.20;99.90;;;;;;4993261;28;20407;-68
2021/09/11 09:14:11;;;;;;;5.13;4.70;;;22.30;99.90;;;;;;4965525;28;20470;-69
2021/09/11 09:16:38;;;;;;;5.07;4.80;;;22.20;98.10;;;;;;4990104;28;20927;-68
2021/09/11 09:19:13;;;;;;;5.00;4.60;;;22.20;98.60;;;;;;4988286;28;20417;-69
2021/09/11 09:21:40;;;;;;;4.87;4.57;;;22.30;99.60;;;;;;4969244;28;20414;-74
2021/09/11 09:24:09;;;;;;;5.40;5.10;;;22.40;99.50;;;;;;4990470;28;20450;-69
2021/09/11 09:26:55;;;;;;;5.60;4.90;;;22.60;99.90;;;;;;4990906;28;20914;-69
2021/09/11 09:29:23;;;;;;;4.50;4.33;;;22.80;99.40;;;;;;4990936;28;20481;-69
2021/09/11 09:31:53;;;;;;;4.90;4.60;;;22.90;98.20;;;;;;4988785;28;20415;-69
2021/09/11 09:34:37;;;;;;;5.27;4.97;;;23.10;97.10;;;;;;4991373;28;20415;-68
2021/09/11 09:37:08;;;;;;;5.10;4.80;;;23.30;97.30;;;;;;4989457;28;20438;-75
2021/09/11 09:39:44;;;;;;;6.67;4.73;;;23.50;97.10;;;;;;4989883;28;20395;-68
2021/09/11 09:42:11;;;;;;;4.97;4.77;;;23.60;97.20;;;;;;4984784;28;20410;-68
2021/09/11 09:44:53;;;;;;;8.23;4.90;;;23.80;96.30;;;;;;4978669;28;20971;-68
2021/09/11 09:47:24;;;;;;;4.83;4.53;;;23.80;96.10;;;;;;4990433;28;21219;-68
2021/09/11 09:50:11;;;;;;;4.57;4.27;;;23.80;95.00;;;;;;4990282;28;20510;-68
2021/09/11 09:52:38;;;;;;;4.30;4.10;;;23.60;95.40;;;;;;4991711;28;20438;-69
2021/09/11 09:55:07;;;;;;;4.57;4.27;;;23.50;94.20;;;;;;4991420;28;20451;-69
2021/09/11 09:57:35;;;;;;;4.90;4.50;;;23.40;94.40;;;;;;4989227;28;20986;-70
2021/09/11 10:00:03;;;;;;;4.47;4.27;;;23.30;95.00;;;;;;4973961;28;20433;-74
2021/09/11 10:02:29;;;;;;;4.40;4.20;;;23.20;94.60;;;;;;4991515;28;20826;-69
2021/09/11 10:04:55;;;;;;;4.40;4.20;;;23.10;94.90;;;;;;4970900;28;20562;-69
2021/09/11 10:07:22;;;;;;;4.70;4.50;;;23.10;95.80;;;;;;4969520;28;20482;-69
2021/09/11 10:09:50;;;;;;;4.63;4.30;;;23.10;95.20;;;;;;4970932;28;20424;-71
2021/09/11 10:12:35;;;;;;;5.10;4.80;;;23.00;95.90;;;;;;4971619;28;20420;-69
2021/09/11 10:15:27;;;;;;;5.17;4.97;;;22.90;95.90;;;;;;4969432;28;20428;-74
2021/09/11 10:17:54;;;;;;;5.20;4.93;;;22.90;96.00;;;;;;4946209;28;20832;-69
2021/09/11 10:20:20;;;;;;;4.70;4.30;;;22.80;95.50;;;;;;4970347;28;20465;-70
2021/09/11 10:23:02;;;;;;;4.70;4.50;;;22.80;95.80;;;;;;4972983;28;20482;-69
2021/09/11 10:25:47;;;;;;;5.27;4.97;;;22.80;97.40;;;;;;4972056;28;20452;-68
2021/09/11 10:28:21;;;;;;;5.27;4.97;;;22.80;97.20;;;;;;4969617;28;20427;-68
2021/09/11 10:31:11;;;;;;;4.50;4.30;;;22.80;97.60;;;;;;4973190;28;20470;-69
2021/09/11 10:33:48;;;;;;;4.77;4.50;;;22.70;96.80;;;;;;4973340;28;20434;-69
2021/09/11 10:36:22;;;;;;;4.33;4.23;;;22.70;97.20;;;;;;4971630;28;20911;-68
2021/09/11 10:38:51;;;;;;;4.80;4.60;;;22.70;97.10;;;;;;4972993;28;20415;-68
2021/09/11 10:41:17;;;;;;;4.30;4.07;;;22.70;96.60;;;;;;4972462;28;20419;-69
2021/09/11 10:44:15;;;;;;;4.40;4.20;;;22.60;97.00;;;;;;4971814;28;20459;-69
2021/09/11 10:46:54;;;;;;;4.20;4.00;;;22.60;96.70;;;;;;4948593;28;20440;-69
2021/09/11 10:49:31;;;;;;;4.60;4.30;;;22.60;96.70;;;;;;4973918;28;20435;-69
2021/09/11 10:52:05;;;;;;;5.10;4.70;;;22.60;97.30;;;;;;4977370;28;20422;-68
2021/09/11 10:54:39;;;;;;;5.17;4.87;;;22.60;98.10;;;;;;4976832;28;20443;-68
2021/09/11 10:57:16;;;;;;;4.87;4.57;;;22.60;99.30;;;;;;4959438;28;20432;-75
2021/09/11 10:59:43;;;;;;;5.23;4.73;;;22.60;97.80;;;;;;4976255;28;20450;-68
2021/09/11 11:02:22;;;;;;;96.20;86.40;;;22.60;98.30;;;;;;4976261;28;20431;-68
2021/09/11 11:04:54;;;;;;;33.03;29.00;;;22.70;97.60;;;;;;4983390;28;20877;-68
2021/09/11 11:07:23;;;;;;;21.83;19.23;;;22.70;98.50;;;;;;4995505;28;20902;-68
2021/09/11 11:10:00;;;;;;;14.37;12.87;;;22.70;98.40;;;;;;4996221;28;20964;-68
2021/09/11 11:12:34;;;;;;;8.83;8.13;;;22.80;97.80;;;;;;4995404;28;20423;-68
2021/09/11 11:15:07;;;;;;;4.87;4.57;;;22.80;98.00;;;;;;4996216;28;20418;-70
2021/09/11 11:17:51;;;;;;;4.60;4.40;;;22.80;98.50;;;;;;4989389;28;20788;-68
2021/09/11 11:20:27;;;;;;;4.83;4.53;;;22.80;97.40;;;;;;4995194;28;20498;-68
2021/09/11 11:22:56;;;;;;;4.20;4.00;;;22.90;98.20;;;;;;4994142;28;20411;-66
2021/09/11 11:25:36;;;;;;;4.00;3.90;;;23.00;98.40;;;;;;4975728;28;20797;-67
2021/09/11 11:28:03;;;;;;;3.90;3.70;;;23.10;97.90;;;;;;4995630;28;20414;-71
2021/09/11 11:30:29;;;;;;;4.37;4.17;;;23.10;98.00;;;;;;4985602;28;20502;-71
2021/09/11 11:32:58;;;;;;;4.20;4.00;;;23.00;97.50;;;;;;4991123;28;20525;-71
2021/09/11 11:35:25;;;;;;;4.47;4.20;;;22.90;97.90;;;;;;4992995;28;20187;-70
2021/09/11 11:37:51;;;;;;;5.17;4.27;;;22.90;97.00;;;;;;4994026;28;20430;-71
2021/09/11 11:40:17;;;;;;;4.20;3.90;;;22.90;97.60;;;;;;4991910;28;20187;-70
2021/09/11 11:42:44;;;;;;;4.60;4.13;;;22.90;98.20;;;;;;4995491;28;20219;-67
2021/09/11 11:45:12;;;;;;;4.30;4.00;;;22.90;98.00;;;;;;4995112;28;20215;-69
2021/09/11 11:48:09;;;;;;;4.43;4.23;;;22.80;99.90;;;;;;4977995;28;20474;-69
2021/09/11 11:50:36;;;;;;;4.70;4.33;;;22.80;99.40;;;;;;4994776;28;20416;-70
2021/09/11 11:53:02;;;;;;;4.03;3.73;;;22.80;98.70;;;;;;4994213;28;20494;-70
2021/09/11 11:55:31;;;;;;;4.33;4.03;;;22.80;98.90;;;;;;4993856;28;20986;-70
2021/09/11 11:58:27;;;;;;;5.27;4.87;;;22.90;98.60;;;;;;4993756;28;20322;-70
2021/09/11 12:00:58;;;;;;;4.70;4.40;;;22.90;99.30;;;;;;4990855;28;20470;-70
2021/09/11 12:03:50;;;;;;;5.23;4.83;;;22.90;99.40;;;;;;4964797;28;20420;-70
2021/09/11 12:06:16;;;;;;;4.80;4.50;;;23.00;99.90;;;;;;4971113;28;20490;-72
2021/09/11 12:08:42;;;;;;;4.80;4.40;;;23.10;99.30;;;;;;4991838;28;20462;-70
2021/09/11 12:11:37;;;;;;;4.97;4.77;;;23.10;98.90;;;;;;4992403;28;20172;-79
2021/09/11 12:14:04;;;;;;;5.00;4.60;;;23.20;98.80;;;;;;4971509;28;20419;-70
2021/09/11 12:16:31;;;;;;;20.13;18.03;;;23.20;99.10;;;;;;4990759;28;20427;-72
2021/09/11 12:19:11;;;;;;;60.17;50.53;;;23.10;99.20;;;;;;4990937;28;20485;-69
2021/09/11 12:21:37;;;;;;;12.93;11.70;;;23.10;98.40;;;;;;4993089;28;20430;-70
2021/09/11 12:24:04;;;;;;;6.80;6.30;;;23.00;99.30;;;;;;4990635;28;20462;-68
2021/09/11 12:26:36;;;;;;;6.23;5.73;;;23.00;99.10;;;;;;4970415;28;20216;-70
2021/09/11 12:29:10;;;;;;;5.10;4.80;;;23.00;98.10;;;;;;4991242;28;20451;-70
2021/09/11 12:31:40;;;;;;;4.77;4.47;;;23.00;98.50;;;;;;4980912;28;20801;-70
2021/09/11 12:34:20;;;;;;;6.07;5.67;;;22.90;98.10;;;;;;4990270;28;20421;-76
2021/09/11 12:37:06;;;;;;;7.20;5.67;;;22.90;98.60;;;;;;4990427;28;20415;-70
2021/09/11 12:39:37;;;;;;;5.90;5.50;;;22.90;99.80;;;;;;4957410;28;20423;-69
2021/09/11 12:42:14;;;;;;;6.90;6.40;;;22.80;98.60;;;;;;4991140;28;20455;-70
2021/09/11 12:44:41;;;;;;;5.80;5.50;;;22.90;99.90;;;;;;4990520;28;20522;-69